createdAt,value
2022-10-14T00:01:42.572Z,70.62
2022-10-14T00:04:12.353Z,70.21
2022-10-14T00:06:43.089Z,70.14
2022-10-14T00:09:12.674Z,70.11
2022-10-14T00:11:43.436Z,70.50
2022-10-14T00:14:15.707Z,70.08
2022-10-14T00:16:46.109Z,70.18
2022-10-14T00:19:15.890Z,70.42
2022-10-14T00:21:46.185Z,70.51
2022-10-14T00:24:18.233Z,69.79
2022-10-14T00:26:46.857Z,70.56
2022-10-14T00:29:19.055Z,69.98
2022-10-14T00:31:48.182Z,70.64
2022-10-14T00:34:17.666Z,70.83
2022-10-14T00:36:46.377Z,70.37
2022-10-14T00:39:17.312Z,70.29
2022-10-14T00:41:46.907Z,70.76
2022-10-14T00:44:52.507Z,69.97
2022-10-14T00:47:21.355Z,70.22
2022-10-14T00:49:50.155Z,70.59
2022-10-14T00:52:23.851Z,70.81
2022-10-14T00:55:01.390Z,70.72
2022-10-14T00:57:30.549Z,70.80
2022-10-14T01:00:04.761Z,70.78
2022-10-14T01:02:32.700Z,71.06
2022-10-14T01:05:02.603Z,70.69
2022-10-14T01:07:46.014Z,70.56
2022-10-14T01:10:24.700Z,71.18
2022-10-14T01:13:04.599Z,71.09
2022-10-14T01:15:43.955Z,70.82
2022-10-14T01:18:23.631Z,70.92
2022-10-14T01:21:16.743Z,70.39
2022-10-14T01:24:28.363Z,70.56
2022-10-14T01:27:17.181Z,70.77
2022-10-14T01:30:01.288Z,71.08
2022-10-14T01:32:32.643Z,71.33
2022-10-14T01:35:13.771Z,71.10
2022-10-14T01:37:49.462Z,70.96
2022-10-14T01:40:26.573Z,70.85
2022-10-14T01:42:59.941Z,71.05
2022-10-14T01:45:32.536Z,71.22
2022-10-14T01:48:03.572Z,70.74
2022-10-14T01:50:34.958Z,71.32
2022-10-14T01:53:09.136Z,71.29
2022-10-14T01:55:42.307Z,71.00
2022-10-14T01:58:14.227Z,71.49
2022-10-14T02:00:43.508Z,71.15
2022-10-14T02:03:13.938Z,70.95
2022-10-14T02:12:16.641Z,71.19
2022-10-14T02:14:50.647Z,71.72
2022-10-14T02:17:27.455Z,71.22
2022-10-14T02:20:01.437Z,71.57
2022-10-14T02:22:35.073Z,71.65
2022-10-14T02:25:13.560Z,71.59
2022-10-14T02:27:44.837Z,71.58
2022-10-14T02:30:14.687Z,71.29
2022-10-14T02:32:44.462Z,71.79
2022-10-14T02:35:18.671Z,71.59
2022-10-14T02:37:49.683Z,71.81
2022-10-14T02:40:23.659Z,72.03
2022-10-14T02:42:52.155Z,72.04
2022-10-14T02:45:24.147Z,71.68
2022-10-14T02:47:52.757Z,71.24
2022-10-14T02:50:21.325Z,71.26
2022-10-14T02:52:49.847Z,71.77
2022-10-14T02:55:23.605Z,72.17
2022-10-14T02:57:52.360Z,72.18
2022-10-14T03:00:21.579Z,71.91
2022-10-14T03:02:50.922Z,71.87
2022-10-14T03:05:22.748Z,72.21
2022-10-14T03:07:51.368Z,71.87
2022-10-14T03:10:27.008Z,71.46
2022-10-14T03:12:56.692Z,71.89
2022-10-14T03:15:29.790Z,71.92
2022-10-14T03:17:59.623Z,72.33
2022-10-14T03:20:36.788Z,72.06
2022-10-14T03:23:05.988Z,71.64
2022-10-14T03:25:39.484Z,72.12
2022-10-14T03:28:18.462Z,71.74
2022-10-14T03:30:52.280Z,71.88
2022-10-14T03:33:33.927Z,72.27
2022-10-14T03:36:12.330Z,71.84
2022-10-14T03:38:50.275Z,71.68
2022-10-14T03:41:45.122Z,72.26
2022-10-14T03:44:15.335Z,71.76
2022-10-14T03:46:49.002Z,72.53
2022-10-14T03:49:17.639Z,72.16
2022-10-14T03:51:48.978Z,72.23
2022-10-14T03:54:23.961Z,72.25
2022-10-14T03:56:53.342Z,72.52
2022-10-14T03:59:28.002Z,72.58
2022-10-14T04:01:57.882Z,71.86
2022-10-14T04:04:26.890Z,72.26
2022-10-14T04:06:57.184Z,72.38
2022-10-14T04:09:27.027Z,72.20
2022-10-14T04:11:57.820Z,72.97
2022-10-14T04:14:49.357Z,72.75
2022-10-14T04:17:18.522Z,72.40
2022-10-14T04:19:47.588Z,72.40
2022-10-14T04:22:17.827Z,72.63
2022-10-14T04:24:49.829Z,72.51
2022-10-14T04:27:19.879Z,72.42
2022-10-14T04:29:53.277Z,72.69
2022-10-14T04:32:28.314Z,72.63
2022-10-14T04:34:58.338Z,72.61
2022-10-14T04:37:29.796Z,72.19
2022-10-14T04:40:11.702Z,72.61
2022-10-14T04:42:45.455Z,72.63
2022-10-14T04:45:21.463Z,72.69
2022-10-14T04:47:55.835Z,72.48
2022-10-14T04:50:25.502Z,72.65
2022-10-14T04:53:15.315Z,72.59
2022-10-14T04:55:54.910Z,72.06
2022-10-14T04:58:23.998Z,72.78
2022-10-14T05:00:55.111Z,72.56
2022-10-14T05:03:37.218Z,72.17
2022-10-14T05:06:06.890Z,72.98
2022-10-14T05:08:36.130Z,72.18
2022-10-14T05:11:12.309Z,72.69
2022-10-14T05:13:49.301Z,72.28
2022-10-14T05:16:18.927Z,72.75
2022-10-14T05:18:48.271Z,72.77
2022-10-14T05:21:17.465Z,72.66
2022-10-14T05:24:05.013Z,72.52
2022-10-14T05:26:35.854Z,72.29
2022-10-14T05:29:07.564Z,73.05
2022-10-14T05:31:37.148Z,72.58
2022-10-14T05:34:20.338Z,73.03
2022-10-14T05:36:49.274Z,72.55
2022-10-14T05:39:18.642Z,73.17
2022-10-14T05:41:47.632Z,73.12
2022-10-14T05:44:20.845Z,72.79
2022-10-14T05:46:50.135Z,72.95
2022-10-14T05:49:18.908Z,73.03
2022-10-14T05:51:47.631Z,72.68
2022-10-14T05:54:20.778Z,73.15
2022-10-14T05:56:50.814Z,72.88
2022-10-14T05:59:21.337Z,72.48
2022-10-14T06:01:50.291Z,72.84
2022-10-14T06:04:21.861Z,72.85
2022-10-14T06:06:50.790Z,72.82
2022-10-14T06:09:20.103Z,72.70
2022-10-14T06:11:48.929Z,72.71
2022-10-14T06:14:17.786Z,72.91
2022-10-14T06:16:50.981Z,72.72
2022-10-14T06:19:19.986Z,72.52
2022-10-14T06:21:49.040Z,72.84
2022-10-14T06:24:17.761Z,72.69
2022-10-14T06:26:47.966Z,72.75
2022-10-14T06:29:17.864Z,72.66
2022-10-14T06:31:46.431Z,72.42
2022-10-14T06:34:15.084Z,72.91
2022-10-14T06:36:46.994Z,72.96
2022-10-14T06:39:16.043Z,72.69
2022-10-14T06:41:44.836Z,72.66
2022-10-14T06:44:21.031Z,72.79
2022-10-14T06:46:50.007Z,72.75
2022-10-14T06:49:18.955Z,72.90
2022-10-14T06:51:47.596Z,72.72
2022-10-14T06:54:17.204Z,72.70
2022-10-14T06:56:45.725Z,72.87
2022-10-14T06:59:14.326Z,72.75
2022-10-14T07:01:43.987Z,72.48
2022-10-14T07:04:12.561Z,72.34
2022-10-14T07:06:42.488Z,72.65
2022-10-14T07:09:11.083Z,73.13
2022-10-14T07:11:43.173Z,72.29
2022-10-14T07:14:11.915Z,72.03
2022-10-14T07:16:43.962Z,72.07
2022-10-14T07:19:13.119Z,71.98
2022-10-14T07:21:46.292Z,72.11
2022-10-14T07:24:15.166Z,72.44
2022-10-14T07:26:45.320Z,72.25
2022-10-14T07:29:13.909Z,71.55
2022-10-14T07:31:43.173Z,71.89
2022-10-14T07:34:11.997Z,72.10
2022-10-14T07:36:42.814Z,71.92
2022-10-14T07:39:11.443Z,71.85
2022-10-14T07:41:43.878Z,71.35
2022-10-14T07:44:13.749Z,71.42
2022-10-14T07:46:45.427Z,71.29
2022-10-14T07:49:16.733Z,71.40
2022-10-14T07:51:46.210Z,71.32
2022-10-14T07:54:17.803Z,70.91
2022-10-14T07:56:49.422Z,70.91
2022-10-14T07:59:19.610Z,71.09
2022-10-14T08:01:48.854Z,71.50
2022-10-14T08:04:18.664Z,71.41
2022-10-14T08:06:48.574Z,71.29
2022-10-14T08:09:19.201Z,71.20
2022-10-14T08:11:48.150Z,70.96
2022-10-14T08:14:16.949Z,71.20
2022-10-14T08:16:46.850Z,70.84
2022-10-14T08:19:16.598Z,71.12
2022-10-14T08:21:45.235Z,70.31
2022-10-14T08:24:14.290Z,70.49
2022-10-14T08:26:50.666Z,70.78
2022-10-14T08:29:22.011Z,70.28
2022-10-14T08:31:53.567Z,69.83
2022-10-14T08:34:23.875Z,70.21
2022-10-14T08:36:53.567Z,69.40
2022-10-14T08:39:22.672Z,70.61
2022-10-14T08:42:05.381Z,69.95
2022-10-14T08:44:43.889Z,70.63
2022-10-14T08:47:15.460Z,70.18
2022-10-14T08:49:58.272Z,69.20
2022-10-14T08:52:35.006Z,69.54
2022-10-14T08:55:23.612Z,69.00
2022-10-14T08:57:57.764Z,69.96
2022-10-14T09:00:25.924Z,69.12
2022-10-14T09:02:54.572Z,68.45
2022-10-14T09:05:25.736Z,68.47
2022-10-14T09:07:58.738Z,67.80
2022-10-14T09:10:34.497Z,67.12
2022-10-14T09:13:13.691Z,67.53
2022-10-14T09:15:45.169Z,67.36
2022-10-14T09:18:22.837Z,67.53
2022-10-14T09:20:53.672Z,67.41
2022-10-14T09:23:24.509Z,67.42
2022-10-14T09:25:58.828Z,67.28
2022-10-14T09:28:37.907Z,66.96
2022-10-14T09:31:10.440Z,67.06
2022-10-14T09:33:42.368Z,66.78
2022-10-14T09:36:17.681Z,66.72
2022-10-14T09:38:47.973Z,66.39
2022-10-14T09:41:18.270Z,67.43
2022-10-14T09:44:17.997Z,66.83
2022-10-14T09:46:50.792Z,66.99
2022-10-14T09:49:23.387Z,66.43
2022-10-14T09:51:52.174Z,66.67
2022-10-14T09:54:28.416Z,66.46
2022-10-14T09:57:06.741Z,66.96
2022-10-14T09:59:50.695Z,66.82
2022-10-14T10:02:25.935Z,66.64
2022-10-14T10:04:56.865Z,66.80
2022-10-14T10:07:30.756Z,66.46
2022-10-14T10:09:59.751Z,66.09
2022-10-14T10:12:31.472Z,66.71
2022-10-14T10:15:03.337Z,66.09
2022-10-14T10:17:34.998Z,66.43
2022-10-14T10:20:26.044Z,66.78
2022-10-14T10:22:56.404Z,66.33
2022-10-14T10:25:29.044Z,66.42
2022-10-14T10:28:14.624Z,66.65
2022-10-14T10:30:58.052Z,66.32
2022-10-14T10:33:34.802Z,66.19
2022-10-14T10:38:59.489Z,66.12
2022-10-14T10:41:53.377Z,66.06
2022-10-14T10:44:44.706Z,65.48
2022-10-14T10:47:26.140Z,65.37
2022-10-14T10:50:16.739Z,65.56
2022-10-14T10:53:03.484Z,65.05
2022-10-14T10:55:39.346Z,65.04
2022-10-14T10:58:22.843Z,65.07
2022-10-14T11:01:01.179Z,64.61
2022-10-14T11:03:47.082Z,64.89
2022-10-14T11:06:40.879Z,64.30
2022-10-14T11:09:37.206Z,64.44
2022-10-14T11:12:15.081Z,64.15
2022-10-14T11:15:15.104Z,63.89
2022-10-14T11:17:51.790Z,64.42
2022-10-14T11:20:29.845Z,64.07
2022-10-14T11:23:23.793Z,64.15
2022-10-14T11:25:58.444Z,63.74
2022-10-14T11:28:36.951Z,63.63
2022-10-14T11:31:14.222Z,63.57
2022-10-14T11:33:57.874Z,63.71
2022-10-14T11:36:38.904Z,62.84
2022-10-14T11:39:23.242Z,63.43
2022-10-14T11:42:04.412Z,63.52
2022-10-14T11:44:37.506Z,62.93
2022-10-14T11:47:12.748Z,63.07
2022-10-14T11:49:49.857Z,63.36
2022-10-14T11:52:25.783Z,63.04
2022-10-14T11:55:02.772Z,62.98
2022-10-14T11:57:36.454Z,63.39
2022-10-14T12:00:12.252Z,63.23
2022-10-14T12:02:49.819Z,62.88
2022-10-14T12:05:24.227Z,63.34
2022-10-14T12:08:06.559Z,63.19
2022-10-14T12:10:43.855Z,63.32
2022-10-14T12:13:16.096Z,62.97
2022-10-14T12:15:51.666Z,63.23
2022-10-14T12:18:21.366Z,63.51
2022-10-14T12:20:57.204Z,63.14
2022-10-14T12:23:34.191Z,63.16
2022-10-14T12:26:10.802Z,63.34
2022-10-14T12:28:40.171Z,62.75
2022-10-14T12:31:37.929Z,63.23
2022-10-14T12:34:34.598Z,62.72
2022-10-14T12:37:34.719Z,62.62
2022-10-14T12:40:26.864Z,62.34
2022-10-14T12:43:22.880Z,62.74
2022-10-14T12:46:13.827Z,62.60
2022-10-14T12:48:51.459Z,62.62
2022-10-14T12:51:21.976Z,62.67
2022-10-14T12:54:04.195Z,62.43
2022-10-14T12:56:37.520Z,62.61
2022-10-14T12:59:09.042Z,62.44
2022-10-14T13:01:44.234Z,62.71
2022-10-14T13:04:20.085Z,62.31
2022-10-14T13:07:39.810Z,62.55
2022-10-14T13:10:47.664Z,62.62
2022-10-14T13:14:07.211Z,62.29
2022-10-14T13:17:03.238Z,62.59
2022-10-14T13:19:44.740Z,62.46
2022-10-14T13:22:44.238Z,62.86
2022-10-14T13:25:22.202Z,62.65
2022-10-14T13:27:58.711Z,63.00
2022-10-14T13:30:36.975Z,62.91
2022-10-14T13:33:15.887Z,62.89
2022-10-14T13:35:52.511Z,62.67
2022-10-14T13:38:23.769Z,62.61
2022-10-14T13:40:55.314Z,62.82
2022-10-14T13:43:28.864Z,62.94
2022-10-14T13:46:07.442Z,62.81
2022-10-14T13:48:39.947Z,62.60
2022-10-14T13:51:41.856Z,62.35
2022-10-14T13:54:18.665Z,62.66
2022-10-14T13:57:31.558Z,63.03
2022-10-14T14:02:47.203Z,62.82
2022-10-14T14:05:22.534Z,62.61
2022-10-14T14:11:14.396Z,62.60
2022-10-14T14:13:53.422Z,62.64
2022-10-14T14:16:24.134Z,62.64
2022-10-14T14:19:07.416Z,62.72
2022-10-14T14:21:38.080Z,63.09
2022-10-14T14:24:16.538Z,63.22
2022-10-14T14:26:54.564Z,63.33
2022-10-14T14:29:27.418Z,63.03
2022-10-14T14:32:12.829Z,62.91
2022-10-14T14:34:47.132Z,63.19
2022-10-14T14:37:44.002Z,62.98
2022-10-14T14:40:22.201Z,62.87
2022-10-14T14:42:54.119Z,63.08
2022-10-14T14:45:25.457Z,63.41
2022-10-14T14:47:56.716Z,63.52
2022-10-14T14:50:31.757Z,63.00
2022-10-14T14:53:04.126Z,63.53
2022-10-14T14:55:46.434Z,63.41
2022-10-14T14:58:28.333Z,63.73
2022-10-14T15:00:57.071Z,63.56
2022-10-14T15:03:28.733Z,63.58
2022-10-14T15:06:00.439Z,63.72
2022-10-14T15:08:31.940Z,63.84
2022-10-14T15:11:01.090Z,63.76
2022-10-14T15:13:45.229Z,63.89
2022-10-14T15:16:13.809Z,64.35
2022-10-14T15:18:43.754Z,63.77
2022-10-14T15:21:18.935Z,63.62
2022-10-14T15:24:02.759Z,64.51
2022-10-14T15:26:35.213Z,63.79
2022-10-14T15:29:14.400Z,63.96
2022-10-14T15:31:45.844Z,64.32
2022-10-14T15:34:20.961Z,63.93
2022-10-14T15:36:51.773Z,64.08
2022-10-14T15:39:22.389Z,64.52
2022-10-14T15:41:51.051Z,64.23
2022-10-14T15:44:20.072Z,64.67
2022-10-14T15:47:08.401Z,64.28
2022-10-14T15:49:41.464Z,64.99
2022-10-14T15:52:15.122Z,65.41
2022-10-14T15:54:48.477Z,64.81
2022-10-14T15:57:17.531Z,64.96
2022-10-14T15:59:50.385Z,64.69
2022-10-14T16:02:32.590Z,65.22
2022-10-14T16:07:50.431Z,65.57
2022-10-14T16:10:24.360Z,65.61
2022-10-14T16:12:52.987Z,65.58
2022-10-14T16:15:28.782Z,65.56
2022-10-14T16:17:57.569Z,66.18
2022-10-14T16:20:27.038Z,65.39
2022-10-14T16:22:55.684Z,65.89
2022-10-14T16:25:33.085Z,65.55
2022-10-14T16:28:07.524Z,66.27
2022-10-14T16:30:40.974Z,66.51
2022-10-14T16:35:40.338Z,66.45
2022-10-14T16:38:10.166Z,65.71
2022-10-14T16:40:42.657Z,66.05
2022-10-14T16:43:42.830Z,66.76
2022-10-14T16:46:15.700Z,66.69
2022-10-14T16:48:46.757Z,65.88
2022-10-14T16:51:27.230Z,66.33
2022-10-14T16:54:05.600Z,67.05
2022-10-14T16:56:53.463Z,66.95
2022-10-14T16:59:33.708Z,66.98
2022-10-14T17:02:12.074Z,66.49
2022-10-14T17:04:51.032Z,67.46
2022-10-14T17:07:22.172Z,67.33
2022-10-14T17:09:53.805Z,66.86
2022-10-14T17:12:53.473Z,67.82
2022-10-14T17:15:24.391Z,67.63
2022-10-14T17:17:53.823Z,67.97
2022-10-14T17:20:22.564Z,67.12
2022-10-14T17:22:54.584Z,67.72
2022-10-14T17:25:30.113Z,67.70
2022-10-14T17:28:06.094Z,67.85
2022-10-14T17:30:43.180Z,67.97
2022-10-14T17:33:14.415Z,67.93
2022-10-14T17:35:55.036Z,67.95
2022-10-14T17:38:40.278Z,68.26
2022-10-14T17:41:18.170Z,67.89
2022-10-14T17:43:52.116Z,67.69
2022-10-14T17:46:24.436Z,67.40
2022-10-14T17:49:02.078Z,67.66
2022-10-14T17:51:49.842Z,67.51
2022-10-14T17:54:25.783Z,67.79
2022-10-14T17:56:56.294Z,68.60
2022-10-14T17:59:37.999Z,67.97
2022-10-14T18:02:17.684Z,68.30
2022-10-14T18:04:48.174Z,68.51
2022-10-14T18:07:18.307Z,68.64
2022-10-14T18:09:47.342Z,68.76
2022-10-14T18:12:16.181Z,68.11
2022-10-14T18:14:47.418Z,67.84
2022-10-14T18:17:16.110Z,67.96
2022-10-14T18:19:51.841Z,68.78
2022-10-14T18:22:23.109Z,69.13
2022-10-14T18:24:54.864Z,68.80
2022-10-14T18:27:25.298Z,68.73
2022-10-14T18:29:54.161Z,68.67
2022-10-14T18:32:23.499Z,68.53
2022-10-14T18:34:52.361Z,69.78
2022-10-14T18:37:21.133Z,68.96
2022-10-14T18:39:50.435Z,68.62
2022-10-14T18:42:20.948Z,69.54
2022-10-14T18:44:53.477Z,69.32
2022-10-14T18:47:22.304Z,69.01
2022-10-14T18:49:51.484Z,69.21
2022-10-14T18:52:20.690Z,69.57
2022-10-14T18:54:50.336Z,69.71
2022-10-14T18:57:19.062Z,70.09
2022-10-14T18:59:49.393Z,70.29
2022-10-14T19:02:17.972Z,70.13
2022-10-14T19:04:47.530Z,70.07
2022-10-14T19:07:16.565Z,70.34
2022-10-14T19:09:50.272Z,69.64
2022-10-14T19:12:39.583Z,70.20
2022-10-14T19:15:10.791Z,70.38
2022-10-14T19:17:39.683Z,69.90
2022-10-14T19:20:09.039Z,70.22
2022-10-14T19:22:45.626Z,69.96
2022-10-14T19:25:15.983Z,70.32
2022-10-14T19:27:46.214Z,70.36
2022-10-14T19:30:14.999Z,70.14
2022-10-14T19:32:43.518Z,69.92
2022-10-14T19:35:14.642Z,70.87
2022-10-14T19:37:43.127Z,70.58
2022-10-14T19:40:12.410Z,70.15
2022-10-14T19:42:40.979Z,70.28
2022-10-14T19:45:14.196Z,70.99
2022-10-14T19:47:42.965Z,71.23
2022-10-14T19:50:11.692Z,70.82
2022-10-14T19:52:40.240Z,71.21
2022-10-14T19:55:09.672Z,71.00
2022-10-14T19:57:38.433Z,71.21
2022-10-14T20:00:10.022Z,70.47
2022-10-14T20:05:12.019Z,71.17
2022-10-14T20:07:40.605Z,70.70
2022-10-14T20:10:10.421Z,70.83
2022-10-14T20:12:39.312Z,71.66
2022-10-14T20:15:10.021Z,71.48
2022-10-14T20:17:38.628Z,71.01
2022-10-14T20:20:09.307Z,71.81
2022-10-14T20:22:37.895Z,71.24
2022-10-14T20:25:08.212Z,71.91
2022-10-14T20:27:36.653Z,71.68
2022-10-14T20:30:07.134Z,71.97
2022-10-14T20:32:35.846Z,71.88
2022-10-14T20:35:05.027Z,71.12
2022-10-14T20:37:33.889Z,70.86
2022-10-14T20:40:03.060Z,71.82
2022-10-14T20:42:33.699Z,71.54
2022-10-14T20:45:02.490Z,72.04
2022-10-14T20:47:30.978Z,71.49
2022-10-14T20:49:59.383Z,71.84
2022-10-14T20:52:29.232Z,71.89
2022-10-14T20:54:57.748Z,72.05
2022-10-14T20:57:28.357Z,72.34
2022-10-14T20:59:56.755Z,71.86
2022-10-14T21:02:25.223Z,71.85
2022-10-14T21:04:53.690Z,71.50
2022-10-14T21:07:22.470Z,71.87
2022-10-14T21:09:51.413Z,71.82
2022-10-14T21:12:20.032Z,71.71
2022-10-14T21:14:49.035Z,72.09
2022-10-14T21:17:17.421Z,72.08
2022-10-14T21:19:47.664Z,71.98
2022-10-14T21:22:16.095Z,72.10
2022-10-14T21:24:44.579Z,72.12
2022-10-14T21:27:13.000Z,71.91
2022-10-14T21:29:41.492Z,71.64
2022-10-14T21:32:10.136Z,72.28
2022-10-14T21:34:38.534Z,72.25
2022-10-14T21:37:07.122Z,72.30
2022-10-14T21:39:35.475Z,72.17
2022-10-14T21:42:03.990Z,71.99
2022-10-14T21:44:32.377Z,72.10
2022-10-14T21:47:00.808Z,72.85
2022-10-14T21:49:31.918Z,72.79
2022-10-14T21:52:02.153Z,72.40
2022-10-14T21:54:30.599Z,72.38
2022-10-14T21:56:58.986Z,72.61
2022-10-14T21:59:27.370Z,73.16
2022-10-14T22:01:58.366Z,73.01
2022-10-14T22:04:27.187Z,72.94
2022-10-14T22:06:55.710Z,72.90
2022-10-14T22:09:24.235Z,73.26
2022-10-14T22:11:53.831Z,73.07
2022-10-14T22:14:22.284Z,73.02
2022-10-14T22:16:50.783Z,73.45
2022-10-14T22:19:19.166Z,73.36
2022-10-14T22:21:49.591Z,73.14
2022-10-14T22:24:18.028Z,73.11
2022-10-14T22:26:49.726Z,73.65
2022-10-14T22:29:18.686Z,73.51
2022-10-14T22:31:49.512Z,73.27
2022-10-14T22:34:18.186Z,73.61
2022-10-14T22:36:48.741Z,73.59
2022-10-14T22:39:17.972Z,73.18
2022-10-14T22:41:48.586Z,73.22
2022-10-14T22:44:17.288Z,73.85
2022-10-14T22:46:47.072Z,73.82
2022-10-14T22:49:15.621Z,73.99
2022-10-14T22:51:44.215Z,73.42
2022-10-14T22:54:12.685Z,73.92
2022-10-14T22:56:41.084Z,74.05
2022-10-14T22:59:11.163Z,73.88
2022-10-14T23:01:41.427Z,73.91
2022-10-14T23:04:10.918Z,73.70
2022-10-14T23:06:43.161Z,74.34
2022-10-14T23:09:11.634Z,74.01
2022-10-14T23:11:40.118Z,73.90
2022-10-14T23:14:10.201Z,73.88
2022-10-14T23:16:39.477Z,73.78
2022-10-14T23:19:08.529Z,73.89
2022-10-14T23:21:38.582Z,74.26
2022-10-14T23:24:11.103Z,74.12
2022-10-14T23:26:39.859Z,73.89
2022-10-14T23:29:11.258Z,73.79
2022-10-14T23:31:40.500Z,73.99
2022-10-14T23:34:12.169Z,73.91
2022-10-14T23:36:41.027Z,74.33
2022-10-14T23:39:09.745Z,74.04
2022-10-14T23:41:38.671Z,73.86
2022-10-14T23:44:07.126Z,74.50
2022-10-14T23:46:35.591Z,74.22
2022-10-14T23:49:24.491Z,74.28
2022-10-14T23:51:53.102Z,74.36
2022-10-14T23:54:22.969Z,74.61
2022-10-14T23:56:51.714Z,74.15
2022-10-14T23:59:20.227Z,74.67
